Time;durP1;ratioP1;P1;durP2;ratioP2;P2;SDS_P1;SDS_P2;PMS_P1;PMS_P2;Temp;Humidity;BMP_temperature;BMP_pressure;BME280_temperature;BME280_humidity;BME280_pressure;Samples;Min_cycle;Max_cycle;Signal;HPM_P1;HPM_P2
2022/01/09 00:00:05;;;;;;;7.25;5.18;;;;;;;-142.91;100.00;56616.03;5060858;28;20262;-64
2022/01/09 00:02:32;;;;;;;5.15;4.68;;;;;;;-142.91;100.00;56616.03;5061418;28;20252;-64
2022/01/09 00:04:59;;;;;;;5.82;4.85;;;;;;;-142.91;100.00;56616.03;5059738;28;20257;-64
2022/01/09 00:07:25;;;;;;;4.45;4.05;;;;;;;-142.91;100.00;56616.03;5059654;28;20842;-65
2022/01/09 00:09:52;;;;;;;7.85;5.05;;;;;;;-142.91;100.00;56616.03;5060964;28;20233;-64
2022/01/09 00:12:19;;;;;;;7.38;4.60;;;;;;;-142.91;100.00;56616.03;5061091;28;20221;-64
2022/01/09 00:14:45;;;;;;;5.05;4.50;;;;;;;-142.91;100.00;56616.03;5059525;28;20222;-63
2022/01/09 00:17:13;;;;;;;12.82;7.10;;;;;;;-142.91;100.00;56616.03;5059687;28;20275;-65
2022/01/09 00:19:40;;;;;;;13.13;7.25;;;;;;;-142.91;100.00;56616.03;5060375;28;20212;-65
2022/01/09 00:22:08;;;;;;;5.03;4.63;;;;;;;-142.91;100.00;56616.03;5059802;28;20238;-64
2022/01/09 00:24:35;;;;;;;4.82;4.30;;;;;;;-142.91;100.00;56616.03;5059981;28;20195;-64
2022/01/09 00:27:02;;;;;;;7.07;4.70;;;;;;;-142.91;100.00;56616.03;5060097;28;20202;-65
2022/01/09 00:29:29;;;;;;;4.68;4.28;;;;;;;-142.91;100.00;56616.03;5060363;28;20222;-65
2022/01/09 00:31:55;;;;;;;6.27;3.90;;;;;;;-142.91;100.00;56616.03;5059915;28;20207;-65
2022/01/09 00:34:24;;;;;;;7.30;4.82;;;;;;;-142.91;100.00;56616.03;5059801;28;20237;-64
2022/01/09 00:36:50;;;;;;;4.63;4.15;;;;;;;-142.91;100.00;56616.03;5058786;28;20269;-65
2022/01/09 00:39:17;;;;;;;4.90;4.50;;;;;;;-142.91;100.00;56616.03;5059344;28;20256;-66
2022/01/09 00:41:44;;;;;;;4.45;4.05;;;;;;;-142.91;100.00;56616.03;5060580;28;20284;-65
2022/01/09 00:44:10;;;;;;;4.45;3.72;;;;;;;-142.91;100.00;56616.03;5060243;28;20234;-65
2022/01/09 00:46:37;;;;;;;5.30;4.80;;;;;;;-142.91;100.00;56616.03;5059689;28;21069;-65
2022/01/09 00:49:05;;;;;;;7.00;4.60;;;;;;;-142.91;100.00;56616.03;5059452;28;20295;-65
2022/01/09 00:51:33;;;;;;;9.82;5.97;;;;;;;-142.91;100.00;56616.03;5059851;28;21602;-64
2022/01/09 00:53:59;;;;;;;5.97;5.35;;;;;;;-142.91;100.00;56616.03;5060007;28;20637;-65
2022/01/09 00:56:26;;;;;;;8.43;5.97;;;;;;;-142.91;100.00;56616.03;5059327;28;20258;-65
2022/01/09 00:58:53;;;;;;;6.82;6.15;;;;;;;-142.91;100.00;56616.03;5059827;28;20194;-65
2022/01/09 01:01:20;;;;;;;10.82;6.53;;;;;;;-142.91;100.00;56616.03;5059873;28;20940;-65
2022/01/09 01:03:47;;;;;;;10.85;6.78;;;;;;;-142.91;100.00;56616.03;5059590;28;20230;-65
2022/01/09 01:06:14;;;;;;;9.32;6.68;;;;;;;-142.91;100.00;56616.03;5059320;28;20291;-65
2022/01/09 01:08:42;;;;;;;7.25;6.20;;;;;;;-142.91;100.00;56616.03;5059211;28;20741;-64
2022/01/09 01:11:09;;;;;;;7.93;6.05;;;;;;;-142.91;100.00;56616.03;5059932;28;20230;-64
2022/01/09 01:13:36;;;;;;;7.80;6.32;;;;;;;-142.91;100.00;56616.03;5060047;28;20320;-64
2022/01/09 01:16:03;;;;;;;9.55;6.93;;;;;;;-142.91;100.00;56616.03;5059601;28;21126;-67
2022/01/09 01:18:30;;;;;;;8.98;5.95;;;;;;;-142.91;100.00;56616.03;5059391;28;20366;-65
2022/01/09 01:20:57;;;;;;;8.43;6.00;;;;;;;-142.91;100.00;56616.03;5058630;28;20225;-65
2022/01/09 01:23:23;;;;;;;6.07;5.32;;;;;;;-142.91;100.00;56616.03;5060014;28;20199;-65
2022/01/09 01:25:52;;;;;;;9.45;6.35;;;;;;;-142.91;100.00;56616.03;5059260;28;20198;-65
2022/01/09 01:28:19;;;;;;;11.95;7.20;;;;;;;-142.91;100.00;56616.03;5063343;28;20272;-64
2022/01/09 01:30:46;;;;;;;13.05;7.50;;;;;;;-142.91;100.00;56616.03;5064070;28;20190;-65
2022/01/09 01:33:13;;;;;;;13.93;7.68;;;;;;;-142.91;100.00;56616.03;5062626;28;20319;-64
2022/01/09 01:35:39;;;;;;;7.40;6.70;;;;;;;-142.91;100.00;56616.03;5062994;28;21129;-64
2022/01/09 01:38:06;;;;;;;9.77;7.53;;;;;;;-142.91;100.00;56616.03;5064024;28;20315;-64
2022/01/09 01:40:33;;;;;;;12.50;7.75;;;;;;;-142.91;100.00;56616.03;5064280;28;20233;-65
2022/01/09 01:43:01;;;;;;;13.27;8.07;;;;;;;-142.91;100.00;56616.03;5063001;28;20291;-65
2022/01/09 01:45:28;;;;;;;14.05;6.90;;;;;;;-142.91;100.00;56616.03;5062868;28;20694;-64
2022/01/09 01:47:54;;;;;;;9.50;7.00;;;;;;;-142.91;100.00;56616.03;5062714;28;20234;-64
2022/01/09 01:50:21;;;;;;;15.40;8.27;;;;;;;-142.91;100.00;56616.03;5062881;28;20615;-64
2022/01/09 01:52:51;;;;;;;9.65;7.47;;;;;;;-142.91;100.00;56616.03;5063026;28;20260;-64
2022/01/09 01:55:19;;;;;;;11.98;8.23;;;;;;;-142.91;100.00;56616.03;5062735;28;20482;-64
2022/01/09 01:57:46;;;;;;;11.90;8.88;;;;;;;-142.91;100.00;56616.03;5062714;28;20602;-64
2022/01/09 02:00:17;;;;;;;12.00;7.97;;;;;;;-142.91;100.00;56616.03;5062514;28;20202;-64
2022/01/09 02:02:44;;;;;;;10.15;8.00;;;;;;;-142.91;100.00;56616.03;5062403;28;20205;-64
2022/01/09 02:05:12;;;;;;;10.65;7.47;;;;;;;-142.91;100.00;56616.03;5062650;28;20206;-64
2022/01/09 02:07:41;;;;;;;21.13;8.02;;;;;;;-142.91;100.00;56616.03;5062548;28;20740;-64
2022/01/09 02:10:09;;;;;;;11.48;8.20;;;;;;;-142.91;100.00;56616.03;5062473;28;21279;-64
2022/01/09 02:12:37;;;;;;;14.52;8.45;;;;;;;-142.91;100.00;56616.03;5063458;28;20222;-64
2022/01/09 02:15:31;;;;;;;11.63;8.27;;;;;;;-142.91;100.00;56616.03;5062244;28;20746;-64
2022/01/09 02:17:58;;;;;;;14.30;8.65;;;;;;;-142.91;100.00;56616.03;5062500;28;20331;-63
2022/01/09 02:20:26;;;;;;;15.80;10.45;;;;;;;-142.91;100.00;56616.03;5061804;28;20194;-64
2022/01/09 02:22:53;;;;;;;13.38;8.73;;;;;;;-142.91;100.00;56616.03;5062043;28;20347;-64
2022/01/09 02:25:19;;;;;;;15.82;10.00;;;;;;;-142.91;100.00;56616.03;5061927;28;20206;-65
2022/01/09 02:27:47;;;;;;;18.58;10.70;;;;;;;-142.91;100.00;56616.03;5061977;28;20237;-64
2022/01/09 02:30:13;;;;;;;14.88;9.75;;;;;;;-142.91;100.00;56616.03;5062073;28;21282;-64
2022/01/09 02:32:40;;;;;;;17.60;10.88;;;;;;;-142.91;100.00;56616.03;5063308;28;20707;-64
2022/01/09 02:35:10;;;;;;;24.42;11.70;;;;;;;-142.91;100.00;56616.03;5062166;28;20743;-64
2022/01/09 02:37:38;;;;;;;18.20;11.38;;;;;;;-142.91;100.00;56616.03;5060979;28;20290;-64
2022/01/09 02:40:06;;;;;;;17.65;10.95;;;;;;;-142.91;100.00;56616.03;5061850;28;20234;-64
2022/01/09 02:42:33;;;;;;;18.08;11.63;;;;;;;-142.91;100.00;56616.03;5061530;28;20344;-64
2022/01/09 02:45:01;;;;;;;17.88;11.32;;;;;;;-142.91;100.00;56616.03;5061531;28;20208;-64
2022/01/09 02:47:30;;;;;;;20.63;12.20;;;;;;;-142.91;100.00;56616.03;5061376;28;20259;-64
2022/01/09 02:50:05;;;;;;;23.10;11.52;;;;;;;-142.91;100.00;56616.03;5062355;28;21190;-64
2022/01/09 02:52:34;;;;;;;19.15;11.25;;;;;;;-142.91;100.00;56616.03;5061726;28;20308;-65
2022/01/09 02:55:12;;;;;;;20.75;12.00;;;;;;;-142.91;100.00;56616.03;5062490;28;20332;-64
2022/01/09 02:57:40;;;;;;;20.20;12.05;;;;;;;-142.91;100.00;56616.03;5061539;28;20228;-67
2022/01/09 03:00:10;;;;;;;16.52;10.40;;;;;;;-142.91;100.00;56616.03;5061998;28;20327;-64
2022/01/09 03:02:37;;;;;;;23.40;11.80;;;;;;;-142.91;100.00;56616.03;5061571;28;20238;-64
2022/01/09 03:05:04;;;;;;;22.20;11.88;;;;;;;-142.91;100.00;56616.03;5061497;28;20295;-64
2022/01/09 03:07:31;;;;;;;19.00;11.02;;;;;;;-142.91;100.00;56616.03;5061218;28;20288;-64
2022/01/09 03:09:58;;;;;;;19.77;11.18;;;;;;;-142.91;100.00;56616.03;5062811;28;20238;-65
2022/01/09 03:12:26;;;;;;;15.23;10.25;;;;;;;-142.91;100.00;56616.03;5061438;28;20249;-64
2022/01/09 03:14:53;;;;;;;18.85;11.23;;;;;;;-142.91;100.00;56616.03;5061046;28;20199;-64
2022/01/09 03:17:19;;;;;;;20.85;12.43;;;;;;;-142.91;100.00;56616.03;5061663;28;20334;-64
2022/01/09 03:19:46;;;;;;;18.75;11.32;;;;;;;-142.91;100.00;56616.03;5061006;28;20234;-65
2022/01/09 03:22:13;;;;;;;18.23;11.32;;;;;;;-142.91;100.00;56616.03;5061020;28;20265;-64
2022/01/09 03:24:42;;;;;;;15.75;11.27;;;;;;;-142.91;100.00;56616.03;5060746;28;20233;-65
2022/01/09 03:27:09;;;;;;;18.05;11.10;;;;;;;-142.91;100.00;56616.03;5060759;28;20355;-65
2022/01/09 03:29:38;;;;;;;26.40;12.80;;;;;;;-142.91;100.00;56616.03;5061666;28;20234;-65
2022/01/09 03:32:06;;;;;;;22.10;12.20;;;;;;;-142.91;100.00;56616.03;5060400;28;20215;-64
2022/01/09 03:34:33;;;;;;;15.52;11.43;;;;;;;-142.91;100.00;56616.03;5060747;28;20202;-65
2022/01/09 03:37:00;;;;;;;17.63;11.60;;;;;;;-142.91;100.00;56616.03;5060963;28;20277;-65
2022/01/09 03:39:27;;;;;;;22.92;11.77;;;;;;;-142.91;100.00;56616.03;5060612;28;20720;-65
2022/01/09 03:41:56;;;;;;;21.65;12.50;;;;;;;-142.91;100.00;56616.03;5060831;28;20294;-65
2022/01/09 03:44:23;;;;;;;22.13;12.73;;;;;;;-142.91;100.00;56616.03;5060788;28;20749;-64
2022/01/09 03:46:52;;;;;;;20.10;12.05;;;;;;;-142.91;100.00;56616.03;5060464;28;20263;-64
2022/01/09 03:49:20;;;;;;;20.17;12.88;;;;;;;-142.91;100.00;56616.03;5060316;28;20226;-65
2022/01/09 03:51:50;;;;;;;19.63;12.05;;;;;;;-142.91;100.00;56616.03;5060583;28;20276;-65
2022/01/09 03:54:17;;;;;;;23.10;12.73;;;;;;;-142.91;100.00;56616.03;5060131;28;20653;-64
2022/01/09 03:56:44;;;;;;;25.17;13.25;;;;;;;-142.91;100.00;56616.03;5060332;28;20252;-65
2022/01/09 03:59:11;;;;;;;20.13;13.15;;;;;;;-142.91;100.00;56616.03;5060099;28;20230;-64
2022/01/09 04:01:37;;;;;;;18.40;11.90;;;;;;;-142.91;100.00;56616.03;5060969;28;20298;-65
2022/01/09 04:04:05;;;;;;;19.63;12.23;;;;;;;-142.91;100.00;56616.03;5060739;28;20214;-65
2022/01/09 04:06:32;;;;;;;21.80;12.20;;;;;;;-142.91;100.00;56616.03;5060169;28;20327;-65
2022/01/09 04:09:06;;;;;;;19.17;11.45;;;;;;;-142.91;100.00;56616.03;5060129;28;20314;-65
2022/01/09 04:11:38;;;;;;;20.30;12.25;;;;;;;-142.91;100.00;56616.03;5060134;28;20297;-64
2022/01/09 04:14:04;;;;;;;22.05;12.98;;;;;;;-142.91;100.00;56616.03;5060449;28;20199;-64
2022/01/09 04:16:32;;;;;;;21.13;10.90;;;;;;;-142.91;100.00;56616.03;5059905;28;20662;-64
2022/01/09 04:18:59;;;;;;;20.45;12.20;;;;;;;-142.91;100.00;56616.03;5060380;28;20347;-65
2022/01/09 04:21:27;;;;;;;20.13;13.02;;;;;;;-142.91;100.00;56616.03;5060928;28;20315;-64
2022/01/09 04:23:54;;;;;;;24.60;13.02;;;;;;;-142.91;100.00;56616.03;5059782;28;20245;-65
2022/01/09 04:26:23;;;;;;;30.10;13.98;;;;;;;-142.91;100.00;56616.03;5059580;28;20677;-64
2022/01/09 04:28:49;;;;;;;24.92;13.65;;;;;;;-142.91;100.00;56616.03;5060023;28;20210;-64
2022/01/09 04:31:16;;;;;;;22.20;12.75;;;;;;;-142.91;100.00;56616.03;5059855;28;20255;-64
2022/01/09 04:33:43;;;;;;;24.17;13.75;;;;;;;-142.91;100.00;56616.03;5059818;28;20237;-64
2022/01/09 04:36:10;;;;;;;23.17;13.93;;;;;;;-142.91;100.00;56616.03;5059278;28;20198;-64
2022/01/09 04:38:38;;;;;;;23.15;13.48;;;;;;;-142.91;100.00;56616.03;5059910;28;20226;-64
2022/01/09 04:41:05;;;;;;;22.75;14.50;;;;;;;-142.91;100.00;56616.03;5059810;28;20271;-65
2022/01/09 04:43:31;;;;;;;25.30;13.35;;;;;;;-142.91;100.00;56616.03;5059561;28;20279;-64
2022/01/09 04:45:58;;;;;;;24.42;13.18;;;;;;;-142.91;100.00;56616.03;5059499;28;20285;-64
2022/01/09 04:48:25;;;;;;;23.73;13.52;;;;;;;-142.91;100.00;56616.03;5059558;28;20198;-64
2022/01/09 04:50:53;;;;;;;27.48;14.80;;;;;;;-142.91;100.00;56616.03;5060032;28;20494;-65
2022/01/09 04:53:20;;;;;;;32.75;14.63;;;;;;;-142.91;100.00;56616.03;5059103;28;20206;-64
2022/01/09 04:55:50;;;;;;;28.58;15.50;;;;;;;-142.91;100.00;56616.03;5058963;28;20276;-64
2022/01/09 04:58:17;;;;;;;39.13;19.03;;;;;;;-142.91;100.00;56616.03;5059241;28;20230;-64
2022/01/09 05:00:44;;;;;;;32.78;19.15;;;;;;;-142.91;100.00;56616.03;5059457;28;20222;-64
2022/01/09 05:03:12;;;;;;;35.20;20.83;;;;;;;-142.91;100.00;56616.03;5059245;28;20202;-65
2022/01/09 05:05:40;;;;;;;38.13;19.77;;;;;;;-142.91;100.00;56616.03;5058850;28;20567;-64
2022/01/09 05:08:08;;;;;;;38.28;18.80;;;;;;;-142.91;100.00;56616.03;5059398;28;20286;-64
2022/01/09 05:10:35;;;;;;;40.08;20.35;;;;;;;-142.91;100.00;56616.03;5059607;28;20336;-64
2022/01/09 05:13:03;;;;;;;43.53;22.00;;;;;;;-142.91;100.00;56616.03;5059155;28;20218;-63
2022/01/09 05:15:29;;;;;;;43.90;20.95;;;;;;;-142.91;100.00;56616.03;5058861;28;20570;-64
2022/01/09 05:18:01;;;;;;;34.17;19.35;;;;;;;-142.91;100.00;56616.03;5058958;28;20307;-65
2022/01/09 05:20:28;;;;;;;36.28;18.40;;;;;;;-142.91;100.00;56616.03;5058884;28;20333;-64
2022/01/09 05:22:55;;;;;;;31.90;16.88;;;;;;;-142.91;100.00;56616.03;5059475;28;20288;-65
2022/01/09 05:25:22;;;;;;;26.35;16.13;;;;;;;-142.91;100.00;56616.03;5059289;28;20295;-63
2022/01/09 05:27:49;;;;;;;24.33;13.82;;;;;;;-142.91;100.00;56616.03;5058435;28;20206;-64
2022/01/09 05:30:17;;;;;;;28.60;15.13;;;;;;;-142.91;100.00;56616.03;5058914;28;20194;-65
2022/01/09 05:32:44;;;;;;;24.88;14.48;;;;;;;-142.91;100.00;56616.03;5058567;28;20199;-65
2022/01/09 05:35:11;;;;;;;21.65;12.20;;;;;;;-142.91;100.00;56616.03;5059090;28;20319;-65
2022/01/09 05:37:38;;;;;;;21.35;13.50;;;;;;;-142.91;100.00;56616.03;5058357;28;20226;-65
2022/01/09 05:40:06;;;;;;;22.52;13.70;;;;;;;-142.91;100.00;56616.03;5058161;28;20233;-64
2022/01/09 05:42:33;;;;;;;20.15;12.57;;;;;;;-142.91;100.00;56616.03;5058556;28;21745;-65
2022/01/09 05:45:00;;;;;;;18.73;12.70;;;;;;;-142.91;100.00;56616.03;5058710;28;20238;-64
2022/01/09 05:47:28;;;;;;;18.63;12.15;;;;;;;-142.91;100.00;56616.03;5058496;28;20645;-64
2022/01/09 05:49:55;;;;;;;21.23;12.07;;;;;;;-142.91;100.00;56616.03;5058640;28;20230;-64
2022/01/09 05:52:21;;;;;;;19.52;11.35;;;;;;;-142.91;100.00;56616.03;5059074;28;20677;-65
2022/01/09 05:54:48;;;;;;;17.25;12.70;;;;;;;-142.91;100.00;56616.03;5058829;28;20211;-65
2022/01/09 05:57:15;;;;;;;23.80;12.95;;;;;;;-142.91;100.00;56616.03;5058887;28;20217;-65
2022/01/09 05:59:44;;;;;;;17.92;12.13;;;;;;;-142.91;100.00;56616.03;5059025;28;20368;-64
2022/01/09 06:02:11;;;;;;;17.90;12.68;;;;;;;-142.91;100.00;56616.03;5058251;28;20202;-65
2022/01/09 06:04:39;;;;;;;23.52;13.00;;;;;;;-142.91;100.00;56616.03;5058528;28;20233;-65
2022/01/09 06:07:05;;;;;;;21.52;13.25;;;;;;;-142.91;100.00;56616.03;5057970;28;20723;-64
2022/01/09 06:09:32;;;;;;;20.58;12.90;;;;;;;-142.91;100.00;56616.03;5059129;28;20268;-64
2022/01/09 06:11:59;;;;;;;20.33;12.43;;;;;;;-142.91;100.00;56616.03;5058252;28;20699;-64
2022/01/09 06:14:25;;;;;;;25.65;13.52;;;;;;;-142.91;100.00;56616.03;5061276;28;20230;-64
2022/01/09 06:16:52;;;;;;;26.17;14.02;;;;;;;-142.91;100.00;56616.03;5061850;28;20257;-64
2022/01/09 06:19:19;;;;;;;24.20;14.18;;;;;;;-142.91;100.00;56616.03;5062287;28;20793;-65
2022/01/09 06:21:47;;;;;;;24.23;13.35;;;;;;;-142.91;100.00;56616.03;5061907;28;20257;-65
2022/01/09 06:24:14;;;;;;;22.77;14.48;;;;;;;-142.91;100.00;56616.03;5062965;28;20359;-64
2022/01/09 06:26:44;;;;;;;21.00;13.63;;;;;;;-142.91;100.00;56616.03;5061925;28;20206;-65
2022/01/09 06:29:12;;;;;;;21.27;13.93;;;;;;;-142.91;100.00;56616.03;5062810;28;20206;-64
2022/01/09 06:31:39;;;;;;;22.92;13.32;;;;;;;-142.91;100.00;56616.03;5061873;28;20206;-64
2022/01/09 06:34:06;;;;;;;20.63;12.32;;;;;;;-142.91;100.00;56616.03;5062032;28;20295;-65
2022/01/09 06:36:32;;;;;;;22.20;12.98;;;;;;;-142.91;100.00;56616.03;5062752;28;20207;-65
2022/01/09 06:39:00;;;;;;;18.52;12.35;;;;;;;-142.91;100.00;56616.03;5062649;28;21046;-65
2022/01/09 06:41:27;;;;;;;19.85;13.38;;;;;;;-142.91;100.00;56616.03;5062160;28;20673;-65
2022/01/09 06:43:54;;;;;;;22.48;14.65;;;;;;;-142.91;100.00;56616.03;5061410;28;20759;-65
2022/01/09 06:46:21;;;;;;;24.95;14.52;;;;;;;-142.91;100.00;56616.03;5061298;28;20230;-64
2022/01/09 06:48:48;;;;;;;27.30;17.15;;;;;;;-142.91;100.00;56616.03;5062380;28;20194;-65
2022/01/09 06:51:14;;;;;;;32.83;18.05;;;;;;;-142.91;100.00;56616.03;5060768;28;20630;-64
2022/01/09 06:53:41;;;;;;;36.95;19.45;;;;;;;-142.91;100.00;56616.03;5061384;28;20873;-64
2022/01/09 06:56:09;;;;;;;24.85;15.75;;;;;;;-142.91;100.00;56616.03;5061817;28;20234;-65
2022/01/09 06:58:37;;;;;;;22.70;14.82;;;;;;;-142.91;100.00;56616.03;5060996;28;20263;-65
2022/01/09 07:01:04;;;;;;;29.23;16.15;;;;;;;-142.91;100.00;56616.03;5062538;28;20879;-65
2022/01/09 07:03:31;;;;;;;81.97;39.47;;;;;;;-142.91;100.00;56616.03;5061416;28;20248;-65
2022/01/09 07:05:58;;;;;;;33.58;18.00;;;;;;;-142.91;100.00;56616.03;5061220;28;20225;-65
2022/01/09 07:08:26;;;;;;;31.08;15.88;;;;;;;-142.91;100.00;56616.03;5061149;28;20234;-65
2022/01/09 07:10:53;;;;;;;21.63;14.27;;;;;;;-142.91;100.00;56616.03;5061127;28;21205;-65
2022/01/09 07:13:21;;;;;;;23.42;15.50;;;;;;;-142.91;100.00;56616.03;5060770;28;20283;-65
2022/01/09 07:15:47;;;;;;;22.75;12.77;;;;;;;-142.91;100.00;56616.03;5060704;28;20226;-65
2022/01/09 07:18:15;;;;;;;22.77;14.65;;;;;;;-142.91;100.00;56616.03;5061193;28;20760;-64
2022/01/09 07:20:42;;;;;;;26.48;17.67;;;;;;;-142.91;100.00;56616.03;5061566;28;21079;-65
2022/01/09 07:23:09;;;;;;;30.92;17.23;;;;;;;-142.91;100.00;56616.03;5061576;28;20668;-65
2022/01/09 07:25:36;;;;;;;30.67;17.30;;;;;;;-142.91;100.00;56616.03;5061481;28;20277;-65
2022/01/09 07:28:04;;;;;;;24.40;15.50;;;;;;;-142.91;100.00;56616.03;5062761;28;20226;-65
2022/01/09 07:30:33;;;;;;;22.33;14.65;;;;;;;-142.91;100.00;56616.03;5060217;28;20206;-65
2022/01/09 07:32:59;;;;;;;22.70;14.32;;;;;;;-142.91;100.00;56616.03;5060996;28;20226;-66
2022/01/09 07:35:27;;;;;;;24.73;15.30;;;;;;;-142.91;100.00;56616.03;5060213;28;20676;-65
2022/01/09 07:37:59;;;;;;;19.58;14.57;;;;;;;-142.91;100.00;56616.03;5059623;28;20272;-65
2022/01/09 07:40:26;;;;;;;21.90;15.25;;;;;;;-142.91;100.00;56616.03;5060530;28;20210;-65
2022/01/09 07:42:52;;;;;;;18.40;13.18;;;;;;;-142.91;100.00;56616.03;5060543;28;20210;-65
2022/01/09 07:45:24;;;;;;;19.88;13.10;;;;;;;-142.91;100.00;56616.03;5061287;28;20260;-65
2022/01/09 07:47:53;;;;;;;17.55;10.82;;;;;;;-142.91;100.00;56616.03;5059796;28;20681;-63
2022/01/09 07:50:19;;;;;;;14.35;10.10;;;;;;;-142.91;100.00;56616.03;5060657;28;20272;-64
2022/01/09 07:52:47;;;;;;;12.20;9.80;;;;;;;-142.91;100.00;56616.03;5061033;28;20256;-65
2022/01/09 07:55:14;;;;;;;14.07;8.95;;;;;;;-142.91;100.00;56616.03;5060121;28;20280;-72
2022/01/09 07:57:41;;;;;;;25.85;14.38;;;;;;;-142.91;100.00;56616.03;5061037;28;20194;-70
2022/01/09 08:00:10;;;;;;;15.07;9.32;;;;;;;-142.91;100.00;56616.03;5059877;28;20226;-70
2022/01/09 08:02:37;;;;;;;14.40;9.05;;;;;;;-142.91;100.00;56616.03;5059703;28;20259;-65
2022/01/09 08:05:07;;;;;;;8.93;6.22;;;;;;;-142.91;100.00;56616.03;5060419;28;20234;-65
2022/01/09 08:07:33;;;;;;;5.05;4.65;;;;;;;-142.91;100.00;56616.03;5060127;28;20222;-65
2022/01/09 08:10:00;;;;;;;7.00;5.82;;;;;;;-142.91;100.00;56616.03;5060683;28;20602;-65
2022/01/09 08:12:27;;;;;;;8.73;6.57;;;;;;;-142.91;100.00;56616.03;5060358;28;20298;-65
2022/01/09 08:14:54;;;;;;;6.78;5.75;;;;;;;-142.91;100.00;56616.03;5059470;28;20295;-65
2022/01/09 08:17:21;;;;;;;6.82;5.03;;;;;;;-142.91;100.00;56616.03;5059604;28;20198;-64
2022/01/09 08:19:48;;;;;;;6.18;4.68;;;;;;;-142.91;100.00;56616.03;5059803;28;20230;-64
2022/01/09 08:22:16;;;;;;;3.92;3.63;;;;;;;-142.91;100.00;56616.03;5059905;28;20226;-64
2022/01/09 08:24:43;;;;;;;4.70;3.53;;;;;;;-142.91;100.00;56616.03;5060179;28;20210;-64
2022/01/09 08:27:10;;;;;;;4.28;3.88;;;;;;;-142.91;100.00;56616.03;5059606;28;20202;-65
2022/01/09 08:29:38;;;;;;;6.22;5.63;;;;;;;-142.91;100.00;56616.03;5060551;28;20222;-64
2022/01/09 08:32:07;;;;;;;4.88;4.47;;;;;;;-142.91;100.00;56616.03;5059468;28;20202;-64
2022/01/09 08:34:34;;;;;;;4.68;4.18;;;;;;;-142.91;100.00;56616.03;5059722;28;20237;-64
2022/01/09 08:37:00;;;;;;;6.50;5.22;;;;;;;-142.91;100.00;56616.03;5058813;28;20247;-64
2022/01/09 08:39:29;;;;;;;6.53;4.43;;;;;;;-142.91;100.00;56616.03;5060097;28;20665;-64
2022/01/09 08:41:56;;;;;;;4.85;4.40;;;;;;;-142.91;100.00;56616.03;5059445;28;20674;-64
2022/01/09 08:44:23;;;;;;;6.93;5.35;;;;;;;-142.91;100.00;56616.03;5060261;28;20688;-65
2022/01/09 08:46:50;;;;;;;4.85;4.32;;;;;;;-142.91;100.00;56616.03;5058938;28;20203;-64
2022/01/09 08:49:17;;;;;;;6.75;5.80;;;;;;;-142.91;100.00;56616.03;5059462;28;20195;-64
2022/01/09 08:51:43;;;;;;;8.07;6.05;;;;;;;-142.91;100.00;56616.03;5060116;28;20199;-64
2022/01/09 08:54:10;;;;;;;9.95;7.22;;;;;;;-142.91;100.00;56616.03;5058782;28;20681;-65
2022/01/09 08:56:39;;;;;;;10.75;7.57;;;;;;;-142.91;100.00;56616.03;5059458;28;20299;-65
2022/01/09 08:59:06;;;;;;;7.68;6.03;;;;;;;-142.91;100.00;56616.03;5059392;28;20295;-64
2022/01/09 09:01:33;;;;;;;10.20;7.47;;;;;;;-142.91;100.00;56616.03;5057058;28;20230;-64
2022/01/09 09:04:00;;;;;;;9.75;7.15;;;;;;;-142.91;100.00;56616.03;5057850;28;20206;-65
2022/01/09 09:06:26;;;;;;;9.70;7.85;;;;;;;-142.91;100.00;56616.03;5058873;28;20284;-65
2022/01/09 09:08:53;;;;;;;12.45;7.97;;;;;;;-142.91;100.00;56616.03;5059175;28;20218;-65
2022/01/09 09:11:20;;;;;;;10.48;7.57;;;;;;;-142.91;100.00;56616.03;5059677;28;20234;-65
2022/01/09 09:13:48;;;;;;;9.95;7.47;;;;;;;-142.91;100.00;56616.03;5059552;28;20623;-65
2022/01/09 09:16:15;;;;;;;7.80;6.93;;;;;;;-142.91;100.00;56616.03;5058006;28;20335;-65
2022/01/09 09:18:43;;;;;;;9.07;6.90;;;;;;;-142.91;100.00;56616.03;5057879;28;22183;-64
2022/01/09 09:21:10;;;;;;;6.03;5.47;;;;;;;-142.91;100.00;56616.03;5056802;28;20796;-65
2022/01/09 09:23:37;;;;;;;9.48;7.28;;;;;;;-142.91;100.00;56616.03;5057258;28;20203;-64
2022/01/09 09:26:03;;;;;;;10.55;7.63;;;;;;;-142.91;100.00;56616.03;5056930;28;20265;-64
2022/01/09 09:28:30;;;;;;;10.75;7.10;;;;;;;-142.91;100.00;56616.03;5057003;28;20881;-64
2022/01/09 09:30:59;;;;;;;9.82;7.15;;;;;;;-142.91;100.00;56616.03;5057545;28;20688;-65
2022/01/09 09:33:26;;;;;;;7.25;5.70;;;;;;;-142.91;100.00;56616.03;5060473;28;20213;-65
2022/01/09 09:35:53;;;;;;;9.25;6.20;;;;;;;-142.91;100.00;56616.03;5059622;28;20264;-67
2022/01/09 09:38:19;;;;;;;7.45;6.05;;;;;;;-142.91;100.00;56616.03;5058721;28;20222;-65
2022/01/09 09:40:46;;;;;;;10.60;7.38;;;;;;;-142.91;100.00;56616.03;5058901;28;20584;-64
2022/01/09 09:43:13;;;;;;;10.73;7.57;;;;;;;-142.91;100.00;56616.03;5059055;28;21225;-64
2022/01/09 09:45:40;;;;;;;9.57;7.95;;;;;;;-142.91;100.00;56616.03;5059217;28;20207;-64
2022/01/09 09:48:08;;;;;;;9.65;7.30;;;;;;;-142.91;100.00;56616.03;5060817;28;20638;-65
2022/01/09 09:50:34;;;;;;;8.63;6.75;;;;;;;-142.91;100.00;56616.03;5062521;28;20206;-65
2022/01/09 09:53:02;;;;;;;8.40;6.32;;;;;;;-142.91;100.00;56616.03;5063002;28;20622;-65
2022/01/09 09:55:30;;;;;;;6.15;5.35;;;;;;;-142.91;100.00;56616.03;5061960;28;20598;-64
2022/01/09 09:57:57;;;;;;;5.03;4.35;;;;;;;-142.91;100.00;56616.03;5061814;28;20661;-64
2022/01/09 10:00:25;;;;;;;6.45;4.80;;;;;;;-142.91;100.00;56616.03;5063418;28;20238;-65
2022/01/09 10:02:55;;;;;;;4.10;3.78;;;;;;;-142.91;100.00;56616.03;5062791;28;20199;-65
2022/01/09 10:05:25;;;;;;;4.68;4.28;;;;;;;-142.91;100.00;56616.03;5062211;28;20270;-64
2022/01/09 10:07:53;;;;;;;4.60;4.20;;;;;;;-142.91;100.00;56616.03;5062467;28;20749;-65
2022/01/09 10:10:22;;;;;;;4.10;3.70;;;;;;;-142.91;100.00;56616.03;5062371;28;20334;-72
2022/01/09 10:12:49;;;;;;;5.28;4.07;;;;;;;-142.91;100.00;56616.03;5061758;28;20280;-65
2022/01/09 10:15:18;;;;;;;6.00;5.38;;;;;;;-142.91;100.00;56616.03;5062290;28;20341;-65
2022/01/09 10:17:47;;;;;;;7.13;5.55;;;;;;;-142.91;100.00;56616.03;5062092;28;20233;-65
2022/01/09 10:20:16;;;;;;;7.80;5.63;;;;;;;-142.91;100.00;56616.03;5062200;28;20255;-65
2022/01/09 10:22:46;;;;;;;6.55;5.32;;;;;;;-142.91;100.00;56616.03;5062176;28;20327;-64
2022/01/09 10:25:37;;;;;;;6.82;5.25;;;;;;;-142.91;100.00;56616.03;5062858;28;20209;-65
2022/01/09 10:28:08;;;;;;;7.78;5.07;;;;;;;-142.91;100.00;56616.03;5061849;28;20677;-65
2022/01/09 10:30:38;;;;;;;6.13;5.53;;;;;;;-142.91;100.00;56616.03;5062233;28;20207;-64
2022/01/09 10:33:08;;;;;;;7.55;5.18;;;;;;;-142.91;100.00;56616.03;5062961;28;20202;-64
2022/01/09 10:35:36;;;;;;;7.43;6.45;;;;;;;-142.91;100.00;56616.03;5062508;28;20202;-64
2022/01/09 10:38:12;;;;;;;6.60;5.13;;;;;;;-142.91;100.00;56616.03;5061327;28;20229;-65
2022/01/09 10:40:41;;;;;;;6.93;5.53;;;;;;;-142.91;100.00;56616.03;5061757;28;20311;-63
2022/01/09 10:43:10;;;;;;;5.60;4.65;;;;;;;-142.91;100.00;56616.03;5062579;28;20693;-65
2022/01/09 10:45:42;;;;;;;5.95;3.83;;;;;;;-142.91;100.00;56616.03;5061968;28;20202;-65
2022/01/09 10:48:11;;;;;;;7.50;4.65;;;;;;;-142.91;100.00;56616.03;5062126;28;20198;-65
2022/01/09 10:50:40;;;;;;;7.43;5.90;;;;;;;-142.91;100.00;56616.03;5061558;28;20740;-64
2022/01/09 10:53:20;;;;;;;7.65;4.95;;;;;;;-142.91;100.00;56616.03;5062344;28;20226;-66
2022/01/09 10:55:49;;;;;;;5.80;4.45;;;;;;;-142.91;100.00;56616.03;5060766;28;20256;-67
2022/01/09 10:58:17;;;;;;;6.93;5.53;;;;;;;-142.91;100.00;56616.03;5060972;28;20288;-65
2022/01/09 11:00:45;;;;;;;6.13;5.10;;;;;;;-142.91;100.00;56616.03;5062189;28;20303;-65